Portada
METAR-TAF:

METAR-TAF

Aeroports :

Astanà, Kazakhstan

latitud: 51-12N, longitud: 071-27E, altitud: 355 m

Observació

L'informe es va fer fa 21 minuts, a les 08:30 UTC
Vent 16 kt del Oest/Sud-Oest
Temperatura 1°C
Humitat 75%
Pressió 1028 hPa
Visibilitat 10 km o més
sense núvols per sota de 1500 mi sense presència de cumulonimbus.

METAR: UACC 120830Z 24008MPS CAVOK 01/M03 Q1028 R22/95//60 TEMPO 23008G13MPS RMK QFE739/0986

Hora: 14:51 (08:51 UTC)

Pronòstic

L'informe es va fer fa 3 hores i 51 minuts, a les 05:00 UTC
Pronòstic vàlid del 12 a les 06 UTC al 13 a les 06 UTC
Vent 17 kt del Sud-Oest
Visibilitat 10 km o més
Núvols disperses a una alçada de 2000 ft
Cel ennuvolat a una alçada de 10000 ft
Temporalment
l' 12 a les 06 UTC al 12 a les 12 UTC
Vent 16 kt del Sud-Oest amb ràfegues de 25 kt

TAF: UACC 120500Z 1206/1306 22009MPS 9999 SCT020 BKN100 TXM01/1209Z TNM06/1301Z TEMPO 1206/1212 23008G13MPS

Observacions i pronòstics meteorològics de més de 4000 aeroports (METAR i TAF).

Les estacions disponibles són els punts grocs i vermells al mapa.

Posi el ratolí al punt desitjat per veure el nom de l'estació.

Feu clic per veure les observacions i els pronòstics meteorològics.

Per canviar el mapa: feu clic els botons verds amb una creu de color negre per apropar; al botó verd amb un guió per allunyar la imatge; o en les fletxes verdes per a mapes adjacents.


METAR-TAF: